createdAt,value
2023-01-25T05:33:43.410Z,1.35
2023-01-25T05:38:45.059Z,1.33
2023-01-25T05:43:49.873Z,1.31
2023-01-25T05:48:51.696Z,1.50
2023-01-25T05:53:57.144Z,1.30
2023-01-25T05:59:00.660Z,1.34
2023-01-25T06:04:02.785Z,1.22
2023-01-25T06:09:04.417Z,1.22
2023-01-25T06:14:06.115Z,1.34
2023-01-25T06:19:08.678Z,1.36
2023-01-25T06:24:10.559Z,1.49
2023-01-25T06:29:12.237Z,1.38
2023-01-25T06:34:13.926Z,1.26
2023-01-25T06:39:15.788Z,1.48
2023-01-25T06:44:17.605Z,1.34
2023-01-25T06:49:19.323Z,1.22
2023-01-25T06:54:21.009Z,1.25
2023-01-25T06:59:22.693Z,1.24
2023-01-25T07:04:24.356Z,1.36
2023-01-25T07:09:26.113Z,1.28
2023-01-25T07:14:28.461Z,1.42
2023-01-25T07:19:30.201Z,1.29
2023-01-25T07:24:31.986Z,1.30
2023-01-25T07:29:33.685Z,1.07
2023-01-25T07:34:35.512Z,1.23
2023-01-25T07:39:37.425Z,1.24
2023-01-25T07:44:39.227Z,1.18
2023-01-25T07:49:40.962Z,1.27
2023-01-25T07:54:42.762Z,1.27
2023-01-25T07:59:44.410Z,1.27
2023-01-25T08:04:46.277Z,1.27
2023-01-25T08:09:47.934Z,1.21
2023-01-25T08:14:50.792Z,1.15
2023-01-25T08:19:52.435Z,1.25
2023-01-25T08:24:54.988Z,1.29
2023-01-25T08:29:56.877Z,1.25
2023-01-25T08:34:58.946Z,1.12
2023-01-25T08:40:01.083Z,1.24
2023-01-25T08:45:03.069Z,1.30
2023-01-25T08:50:05.753Z,1.26
2023-01-25T08:55:07.976Z,1.28
2023-01-25T09:00:12.092Z,1.42
2023-01-25T09:05:14.103Z,1.29
2023-01-25T09:10:16.041Z,1.26
2023-01-25T09:15:17.715Z,1.02
2023-01-25T09:20:19.524Z,1.32
2023-01-25T09:25:21.242Z,1.25
2023-01-25T09:30:33.581Z,1.16
2023-01-25T09:35:35.795Z,1.21
2023-01-25T09:40:40.523Z,1.30
2023-01-25T09:45:43.164Z,1.26
2023-01-25T09:51:01.886Z,1.40
2023-01-25T09:56:20.228Z,1.44
2023-01-25T10:01:39.328Z,1.38
2023-01-25T10:06:55.032Z,1.32
2023-01-25T10:12:35.493Z,1.23
2023-01-25T10:17:41.663Z,1.22
2023-01-25T10:22:51.359Z,1.11
2023-01-25T10:28:05.122Z,1.08
2023-01-25T10:33:19.739Z,1.12
2023-01-25T10:38:35.457Z,1.19
2023-01-25T10:43:37.185Z,1.24
2023-01-25T10:48:39.676Z,1.34
2023-01-25T10:53:43.569Z,1.49
2023-01-25T10:58:48.543Z,1.35
2023-01-25T11:03:50.192Z,1.28
2023-01-25T11:08:52.087Z,1.25
2023-01-25T11:13:57.362Z,1.33
2023-01-25T11:19:01.312Z,1.23
2023-01-25T11:24:09.470Z,1.29
2023-01-25T11:29:16.010Z,1.55
2023-01-25T11:34:35.867Z,1.35
2023-01-25T11:39:55.396Z,1.25
2023-01-25T11:45:23.307Z,1.21
2023-01-25T11:50:31.266Z,1.31
2023-01-25T11:55:58.585Z,1.16
2023-01-25T12:01:08.133Z,1.27
2023-01-25T12:06:12.796Z,1.44
2023-01-25T12:11:39.468Z,1.50
2023-01-25T12:16:50.146Z,1.35
2023-01-25T12:22:19.814Z,1.35
2023-01-25T12:27:42.915Z,1.18
2023-01-25T12:33:02.289Z,1.30
2023-01-25T12:38:13.287Z,1.33
2023-01-25T12:43:20.717Z,1.28
2023-01-25T12:48:31.786Z,1.36
2023-01-25T12:53:41.466Z,1.42
2023-01-25T12:59:08.522Z,1.45
2023-01-25T13:04:44.912Z,1.63
2023-01-25T13:10:13.882Z,1.41
2023-01-25T13:15:38.828Z,1.24
2023-01-25T13:20:40.399Z,1.25
2023-01-25T13:25:42.073Z,1.24
2023-01-25T13:30:53.269Z,1.44
2023-01-25T13:35:55.129Z,1.49
2023-01-25T13:41:05.210Z,1.42
2023-01-25T13:46:10.272Z,1.48
2023-01-25T13:51:17.048Z,1.51
2023-01-25T13:56:27.732Z,1.40
2023-01-25T14:01:31.929Z,1.46
2023-01-25T14:06:41.538Z,1.38
2023-01-25T14:11:54.909Z,1.32
2023-01-25T14:17:09.472Z,1.35
2023-01-25T14:22:25.046Z,1.43
2023-01-25T14:27:26.783Z,1.38
2023-01-25T14:32:28.916Z,1.50
2023-01-25T14:37:30.966Z,1.35
2023-01-25T14:42:32.920Z,1.46
2023-01-25T14:47:35.793Z,1.52
2023-01-25T14:52:39.459Z,1.33
2023-01-25T14:57:41.817Z,1.36
2023-01-25T15:02:56.814Z,1.27
2023-01-25T15:08:07.811Z,1.37
2023-01-25T15:13:14.442Z,1.49
2023-01-25T15:18:46.285Z,1.48
2023-01-25T15:23:49.925Z,1.36
2023-01-25T15:28:54.279Z,1.31
2023-01-25T15:33:57.512Z,1.29
2023-01-25T15:38:59.827Z,1.33
2023-01-25T15:44:01.547Z,1.27
2023-01-25T15:49:06.370Z,1.38
2023-01-25T15:54:09.079Z,1.44
2023-01-25T15:59:18.692Z,1.51
2023-01-25T16:04:20.579Z,1.45
2023-01-25T16:09:25.232Z,1.52
2023-01-25T16:14:31.790Z,1.53
2023-01-25T16:19:34.315Z,1.51
2023-01-25T16:24:39.442Z,1.73
2023-01-25T16:29:41.285Z,1.60
2023-01-25T16:34:43.375Z,1.50
2023-01-25T16:39:45.464Z,1.61
2023-01-25T16:44:47.447Z,1.60
2023-01-25T16:49:49.241Z,1.72
2023-01-25T16:54:50.874Z,1.60
2023-01-25T16:59:52.509Z,1.50
2023-01-25T17:04:54.533Z,1.54
2023-01-25T17:09:56.171Z,1.48
2023-01-25T17:14:59.697Z,1.50
2023-01-25T17:20:01.693Z,1.47
2023-01-25T17:25:07.260Z,1.49
2023-01-25T17:30:09.788Z,1.47
2023-01-25T17:35:11.759Z,1.52
2023-01-25T17:40:14.518Z,1.57
2023-01-25T17:45:17.441Z,1.56
2023-01-25T17:50:19.272Z,1.54
2023-01-25T17:55:21.048Z,1.55
2023-01-25T18:00:23.216Z,1.57
2023-01-25T18:05:27.515Z,1.51
2023-01-25T18:10:29.158Z,1.48
2023-01-25T18:15:31.005Z,1.59
2023-01-25T18:20:32.893Z,1.42
2023-01-25T18:25:36.414Z,1.58
2023-01-25T18:30:51.862Z,1.43
2023-01-25T18:35:54.650Z,1.31
2023-01-25T18:40:56.957Z,1.49
2023-01-25T18:45:59.609Z,1.48
2023-01-25T18:51:09.116Z,1.43
2023-01-25T18:56:16.323Z,1.45
2023-01-25T19:01:20.377Z,1.60
2023-01-25T19:06:22.040Z,1.52
2023-01-25T19:11:24.137Z,1.49
2023-01-25T19:16:26.103Z,1.42
2023-01-25T19:21:28.280Z,1.47
2023-01-25T19:26:30.509Z,1.61
2023-01-25T19:31:32.661Z,1.52
2023-01-25T19:36:36.414Z,1.50
2023-01-25T19:41:40.536Z,1.57
2023-01-25T19:46:42.957Z,1.46
2023-01-25T19:51:48.904Z,1.46
2023-01-25T19:56:50.810Z,1.27
2023-01-25T20:01:52.738Z,1.25
2023-01-25T20:06:54.526Z,1.48
2023-01-25T20:11:57.613Z,1.46
2023-01-25T20:16:59.307Z,1.46
2023-01-25T20:22:01.545Z,1.54
2023-01-25T20:27:04.449Z,1.66
2023-01-25T20:32:06.802Z,1.49
2023-01-25T20:37:09.695Z,1.50
2023-01-25T20:42:11.373Z,1.29
2023-01-25T20:47:13.067Z,1.31
2023-01-25T20:52:14.764Z,1.31
